Terminal Aerodrome Forecast
Issued by NWS Omaha/Valley, NE

Home | Current Version | Previous Version | Text Only | Print | Product List | Glossary On
Versions: 1 2 3 4 5 6 7 8 9 10 11 12 13 14 15 16 17 18 19 20 21 22 23 24
000
FTUS43 KOAX 231135 AAA
TAFLNK
TAF AMD
KLNK 231135Z 2312/2412 VRB04KT 3SM BR BKN015
      TEMPO 2312/2315 1/2SM FG BKN005
     FM231500 VRB03KT 6SM HZ SCT009
      TEMPO 2315/2316 3SM BR BKN009
     FM231700 22005KT P6SM SCT025
     FM232300 17005KT P6SM FEW025=

USA.gov is the U.S. government's official web portal to all federal, state and local government web resources and services.